Home > Products > Valid Products > TAF

000
FTUS42 KILM 241100
TAFLBT
TAF
KLBT 241121Z 2412/2512 VRB05KT P6SM BKN180=



000
FTUS42 KILM 241100
TAFCRE
TAF
KCRE 241121Z 2412/2512 34005KT P6SM BKN180=



000
FTUS42 KILM 241100
TAFFLO
TAF
KFLO 241121Z 2412/2512 VRB05KT P6SM BKN180=



000
FTUS42 KILM 241100
TAFMYR
TAF
KMYR 241121Z 2412/2512 35005KT P6SM BKN180=



000
FTUS42 KILM 241100
TAFILM
TAF
KILM 241121Z 2412/2512 31005KT P6SM BKN180=



000
FTUS42 KILM 240500
TAFMYR
TAF
KMYR 240520Z 2406/2506 30004KT P6SM BKN250
     FM241800 VRB06KT P6SM SCT200
      AMD LTD TO CLD VIS AND WIND TIL 241100=



000
FTUS42 KILM 240500
TAFCRE
TAF
KCRE 240520Z 2406/2506 30004KT P6SM BKN250
     FM241800 VRB05KT P6SM SCT200=



000
FTUS42 KILM 240500
TAFFLO
TAF
KFLO 240520Z 2406/2506 VRB03KT P6SM BKN250
     FM250000 00000KT P6SM SCT200=



000
FTUS42 KILM 240500
TAFLBT
TAF
KLBT 240520Z 2406/2506 VRB03KT P6SM BKN250
     FM250000 00000KT P6SM SCT200=



000
FTUS42 KILM 240500
TAFILM
TAF
KILM 240520Z 2406/2506 31004KT P6SM BKN250
     FM241800 29005KT P6SM SCT200=



000
FTUS42 KILM 232300
TAFCRE
TAF
KCRE 232320Z 2400/2424 30003KT P6SM SKC
     FM240900 01004KT P6SM FEW250
     FM241800 VRB05KT P6SM SCT250=



000
FTUS42 KILM 232300
TAFFLO
TAF
KFLO 232320Z 2400/2424 32003KT P6SM SKC
     FM240900 VRB04KT P6SM SCT250=



000
FTUS42 KILM 232300
TAFLBT
TAF
KLBT 232320Z 2400/2424 31003KT P6SM SKC
     FM240900 VRB04KT P6SM SCT250=



000
FTUS42 KILM 232300
TAFILM
TAF
KILM 232320Z 2400/2424 30004KT P6SM SKC
     FM240900 35004KT P6SM FEW250
     FM241800 29006KT P6SM SCT250=



000
FTUS42 KILM 232300
TAFMYR
TAF
KMYR 232320Z 2400/2424 30004KT P6SM SKC
     FM240900 36005KT P6SM FEW250
     FM241800 VRB06KT P6SM SCT250
      AMD LTD TO CLD VIS AND WIND 2404/2411=



000
FTUS42 KILM 231700
TAFLBT
TAF
KLBT 231726Z 2318/2418 32008KT P6SM SKC
     FM240000 VRB03KT P6SM SKC=



000
FTUS42 KILM 231700
TAFMYR
TAF
KMYR 231726Z 2318/2418 31010KT P6SM SKC
     FM232200 23005KT P6SM SKC
     FM240600 34006KT P6SM SKC=



000
FTUS42 KILM 231700
TAFILM
TAF
KILM 231726Z 2318/2418 30010KT P6SM SKC
     FM232300 28004KT P6SM SKC
     FM240600 35004KT P6SM SKC=



000
FTUS42 KILM 231700
TAFFLO
TAF
KFLO 231726Z 2318/2418 32008KT P6SM SKC
     FM240000 VRB03KT P6SM SKC=



000
FTUS42 KILM 231700
TAFCRE
TAF
KCRE 231726Z 2318/2418 30010KT P6SM SKC
     FM232300 29004KT P6SM SKC
     FM240600 36006KT P6SM SKC=



000
FTUS42 KILM 231100
TAFILM
TAF
KILM 231120Z 2312/2412 31010KT P6SM SKC
     FM232300 28004KT P6SM SKC
     FM240600 34003KT P6SM SKC=



000
FTUS42 KILM 231100
TAFLBT
TAF
KLBT 231120Z 2312/2412 32006KT P6SM SKC
     FM231400 30010KT P6SM SKC
     FM232200 VRB02KT P6SM SKC=



000
FTUS42 KILM 231100
TAFMYR
TAF
KMYR 231120Z 2312/2412 31010KT P6SM SKC
     FM232200 23005KT P6SM SKC
     FM240600 32005KT P6SM SKC=



000
FTUS42 KILM 231100
TAFCRE
TAF
KCRE 231120Z 2312/2412 31010KT P6SM SKC
     FM232300 29004KT P6SM SKC
     FM240600 33004KT P6SM SKC=



000
FTUS42 KILM 231100
TAFFLO
TAF
KFLO 231120Z 2312/2412 33006KT P6SM SKC
     FM231400 32008KT P6SM SKC
     FM232200 VRB03KT P6SM SKC=



000
FTUS42 KILM 230500
TAFLBT
TAF
KLBT 230522Z 2306/2406 32006KT P6SM SKC
     FM231400 31010KT P6SM SKC
     FM232200 00000KT P6SM SKC=



000
FTUS42 KILM 230500
TAFMYR
TAF
KMYR 230522Z 2306/2406 32006KT P6SM SKC
     FM231400 31010KT P6SM SKC
     FM232200 00000KT P6SM SKC
      AMD LTD TO CLD VIS AND WIND TIL 231100=



000
FTUS42 KILM 230500
TAFCRE
TAF
KCRE 230522Z 2306/2406 33005KT P6SM SKC
     FM231400 32010KT P6SM SKC
     FM232300 00000KT P6SM SKC=



000
FTUS42 KILM 230500
TAFFLO
TAF
KFLO 230522Z 2306/2406 33006KT P6SM SKC
     FM231400 32008KT P6SM SKC
     FM232200 00000KT P6SM SKC=



000
FTUS42 KILM 230500
TAFILM
TAF
KILM 230522Z 2306/2406 31006KT P6SM SKC
     FM231400 31010KT P6SM SKC
     FM232200 00000KT P6SM SKC=



000
FTUS42 KILM 222300
TAFCRE
TAF
KCRE 222320Z 2300/2324 34007KT P6SM SKC
     FM231400 30010KT P6SM SKC=



000
FTUS42 KILM 222300
TAFMYR
TAF
KMYR 222320Z 2300/2324 33006KT P6SM SKC
     FM231400 30010KT P6SM SKC
      AMD LTD TO CLD VIS AND WIND 2304/2311=



000
FTUS42 KILM 222300
TAFILM
TAF
KILM 222320Z 2300/2324 33011KT P6SM SKC
     FM230400 33005KT P6SM SKC
     FM231400 30010KT P6SM SKC=



000
FTUS42 KILM 222300
TAFFLO
TAF
KFLO 222320Z 2300/2324 33005KT P6SM SKC
     FM231400 29008KT P6SM SKC=



000
FTUS42 KILM 222300
TAFLBT
TAF
KLBT 222320Z 2300/2324 33006KT P6SM SKC
     FM231400 30010KT P6SM SKC=



000
FTUS42 KILM 221700
TAFILM
TAF
KILM 221721Z 2218/2318 32011G19KT P6SM SKC
     FM222200 33011KT P6SM SKC
     FM230400 33005KT P6SM SKC
     FM231400 30010KT P6SM SKC=



000
FTUS42 KILM 221700
TAFLBT
TAF
KLBT 221721Z 2218/2318 02011KT P6SM SKC
     FM222300 33006KT P6SM SKC
     FM231400 30010KT P6SM SKC=



000
FTUS42 KILM 221700
TAFMYR
TAF
KMYR 221721Z 2218/2318 35011G19KT P6SM SKC
     FM222300 33006KT P6SM SKC
     FM231400 30010KT P6SM SKC=



000
FTUS42 KILM 221700
TAFFLO
TAF
KFLO 221721Z 2218/2318 33011G18KT P6SM SKC
     FM230000 33005KT P6SM SKC
     FM231400 29008KT P6SM SKC=



000
FTUS42 KILM 221700
TAFCRE
TAF
KCRE 221721Z 2218/2318 36008KT P6SM SKC
     FM222300 34007KT P6SM SKC
     FM231400 30010KT P6SM SKC=



000
FTUS42 KILM 221700
TAFILM
TAF
KILM 221721Z 2218/2318 32011G19KT P6SM SKC
     FM222200 33011KT P6SM SKC
     FM230400 33005KT P6SM SKC
     FM231400 30010KT P6SM SKC=



000
FTUS42 KILM 221700
TAFLBT
TAF
KLBT 221721Z 2218/2318 02011KT P6SM SKC
     FM222300 33006KT P6SM SKC
     FM231400 30010KT P6SM SKC=



000
FTUS42 KILM 221700
TAFMYR
TAF
KMYR 221721Z 2218/2318 35011G19KT P6SM SKC
     FM222300 33006KT P6SM SKC
     FM231400 30010KT P6SM SKC=



000
FTUS42 KILM 221700
TAFFLO
TAF
KFLO 221721Z 2218/2318 33011G18KT P6SM SKC
     FM230000 33005KT P6SM SKC
     FM231400 29008KT P6SM SKC=



000
FTUS42 KILM 221700
TAFCRE
TAF
KCRE 221721Z 2218/2318 36008KT P6SM SKC
     FM222300 34007KT P6SM SKC
     FM231400 30010KT P6SM SKC=



000
FTUS42 KILM 221100
TAFMYR
TAF
KMYR 221131Z 2212/2312 32009KT P6SM SKC
     FM221300 33011G19KT P6SM SCT050
     FM222300 33006KT P6SM SKC=



000
FTUS42 KILM 221100
TAFLBT
TAF
KLBT 221131Z 2212/2312 32007KT P6SM SKC
     FM221400 33011G19KT P6SM SKC
     FM222300 33006KT P6SM SKC=



000
FTUS42 KILM 221100
TAFFLO
TAF
KFLO 221131Z 2212/2312 33006KT P6SM SKC
     FM221300 33011G19KT P6SM SKC
     FM222300 34006KT P6SM SKC=



000
FTUS42 KILM 221100
TAFILM
TAF
KILM 221131Z 2212/2312 32008KT P6SM SKC
     FM221300 32011G19KT P6SM SCT050
     FM222200 33011KT P6SM SKC
     FM230400 33005KT P6SM SKC=



000
FTUS42 KILM 221100
TAFCRE
TAF
KCRE 221131Z 2212/2312 33006KT P6SM SKC
     FM221300 32011G18KT P6SM SKC
     FM222300 34007KT P6SM SKC=



000
FTUS42 KILM 220500
TAFMYR
TAF
KMYR 220525Z 2206/2306 34010G14KT P6SM SCT090
     FM221300 33014G19KT P6SM SCT045
     FM222300 33006KT P6SM SKC
      AMD LTD TO CLD VIS AND WIND TIL 221100=



000
FTUS42 KILM 220500
TAFILM
TAF
KILM 220525Z 2206/2306 34011KT P6SM BKN070
     FM221300 33014G22KT P6SM SCT070
     FM222200 32011KT P6SM SKC=



000
FTUS42 KILM 220500
TAFCRE
TAF
KCRE 220525Z 2206/2306 35006KT P6SM SCT080
     FM221300 32010G18KT P6SM SKC
     FM222300 34007KT P6SM SKC=



000
FTUS42 KILM 220500
TAFLBT
TAF
KLBT 220525Z 2206/2306 33007KT P6SM SCT070 OVC090
     FM221400 33014G20KT P6SM SKC
     FM222300 32010KT P6SM SKC=



000
FTUS42 KILM 220500
TAFFLO
TAF
KFLO 220525Z 2206/2306 35010KT P6SM SCT070
     FM221300 33013G19KT P6SM SKC
     FM222300 34009KT P6SM SKC=



000
FTUS42 KILM 220500
TAFFLO
TAF
KFLO 220525Z 2206/2306 35010KT P6SM SCT070
     FM221300 33013G19KT P6SM SKC
     FM222300 34009KT P6SM SKC=



000
FTUS42 KILM 220500
TAFLBT
TAF
KLBT 220525Z 2206/2306 33007KT P6SM SCT070 OVC090
     FM221400 33014G20KT P6SM SKC
     FM222300 32010KT P6SM SKC=



000
FTUS42 KILM 220500
TAFCRE
TAF
KCRE 220525Z 2206/2306 35006KT P6SM SCT080
     FM221300 32010G18KT P6SM SKC
     FM222300 34007KT P6SM SKC=



000
FTUS42 KILM 220500
TAFMYR
TAF
KMYR 220525Z 2206/2306 34010G14KT P6SM SCT090
     FM221300 33014G19KT P6SM SCT045
     FM222300 33006KT P6SM SKC
      AMD LTD TO CLD VIS AND WIND TIL 221100=



000
FTUS42 KILM 220500
TAFILM
TAF
KILM 220525Z 2206/2306 34011KT P6SM BKN070
     FM221300 33014G22KT P6SM SCT070
     FM222200 32011KT P6SM SKC=



000
FTUS42 KILM 220200 AAA
TAFMYR
TAF AMD
KMYR 220232Z 2203/2224 23006KT P6SM SKC
     FM220700 33010KT P6SM SKC
     FM221100 33012G18KT P6SM SKC
     FM222200 34004KT P6SM SKC
      AMD NOT SKED=



000
FTUS42 KILM 220200 AAA
TAFMYR
TAF AMD
KMYR 220232Z 2203/2224 23006KT P6SM SKC
     FM220700 33010KT P6SM SKC
     FM221100 33012G18KT P6SM SKC
     FM222200 34004KT P6SM SKC
      AMD NOT SKED=



000
FTUS42 KILM 212300
TAFFLO
TAF
KFLO 212320Z 2200/2224 28004KT P6SM SKC
     FM220500 33010KT P6SM FEW060
     FM221400 35011G16KT P6SM SKC
     FM222200 33005KT P6SM SKC=



000
FTUS42 KILM 212300
TAFMYR
TAF
KMYR 212320Z 2200/2224 23006KT P6SM SKC
     FM220700 33010KT P6SM SKC
     FM221100 33012G18KT P6SM SKC
     FM222200 34004KT P6SM SKC
      AMD LTD TO CLD VIS AND WIND 2204/2211=



000
FTUS42 KILM 212300
TAFLBT
TAF
KLBT 212320Z 2200/2224 28004KT P6SM SKC
     FM220400 33010KT P6SM FEW060
     FM221400 35011G16KT P6SM SKC
     FM222200 33005KT P6SM SKC=



000
FTUS42 KILM 212300
TAFILM
TAF
KILM 212320Z 2200/2224 23006KT P6SM SKC
     FM220600 32010KT P6SM SKC
     FM221300 31012G18KT P6SM SKC
     FM222200 34004KT P6SM SKC=



000
FTUS42 KILM 212300
TAFCRE
TAF
KCRE 212320Z 2200/2224 23006KT P6SM SKC
     FM220700 32010KT P6SM SKC
     FM221300 34012G18KT P6SM SKC
     FM222200 34004KT P6SM SKC=



000
FTUS42 KILM 212300
TAFFLO
TAF
KFLO 212320Z 2200/2224 28004KT P6SM SKC
     FM220500 33010KT P6SM FEW060
     FM221400 35011G16KT P6SM SKC
     FM222200 33005KT P6SM SKC=



000
FTUS42 KILM 212300
TAFLBT
TAF
KLBT 212320Z 2200/2224 28004KT P6SM SKC
     FM220400 33010KT P6SM FEW060
     FM221400 35011G16KT P6SM SKC
     FM222200 33005KT P6SM SKC=



000
FTUS42 KILM 212300
TAFMYR
TAF
KMYR 212320Z 2200/2224 23006KT P6SM SKC
     FM220700 33010KT P6SM SKC
     FM221100 33012G18KT P6SM SKC
     FM222200 34004KT P6SM SKC
      AMD LTD TO CLD VIS AND WIND 2204/2211=



000
FTUS42 KILM 212300
TAFCRE
TAF
KCRE 212320Z 2200/2224 23006KT P6SM SKC
     FM220700 32010KT P6SM SKC
     FM221300 34012G18KT P6SM SKC
     FM222200 34004KT P6SM SKC=



000
FTUS42 KILM 212300
TAFILM
TAF
KILM 212320Z 2200/2224 23006KT P6SM SKC
     FM220600 32010KT P6SM SKC
     FM221300 31012G18KT P6SM SKC
     FM222200 34004KT P6SM SKC=



000
FTUS42 KILM 211700
TAFCRE
TAF
KCRE 211725Z 2118/2218 31007KT P6SM SKC
     FM220300 31011G15KT P6SM SKC
     FM221100 34011G17KT P6SM SKC=



000
FTUS42 KILM 211700
TAFLBT
TAF
KLBT 211725Z 2118/2218 27007KT P6SM SKC
     FM220200 33009G15KT P6SM FEW060
     FM221500 33012KT P6SM SKC=



000
FTUS42 KILM 211700
TAFILM
TAF
KILM 211725Z 2118/2218 29007KT P6SM SKC
     FM212300 23009KT P6SM SKC
     FM220500 30011G15KT P6SM SKC
     FM221100 33012G18KT P6SM SKC=



000
FTUS42 KILM 211700
TAFFLO
TAF
KFLO 211725Z 2118/2218 28007KT P6SM SKC
     FM220300 34010G15KT P6SM FEW060
     FM221400 35011KT P6SM SKC=



000
FTUS42 KILM 211700
TAFMYR
TAF
KMYR 211725Z 2118/2218 30008KT P6SM SKC
     FM220300 34010G15KT P6SM SKC
     FM221100 33012G18KT P6SM SKC=



    US Dept of Commerce
    National Oceanic and Atmospheric Administration
    National Weather Service
    1325 East West Highway
    Silver Spring, MD 20910
    Page Author: NWS Internet Services Team
Disclaimer
Information Quality
Credits
Glossary
Privacy Policy
Freedom of Information Act (FOIA)
About Us
Career Opportunities